createdAt,value
2017-06-25T00:00:04.856Z,1004.13
2017-06-25T00:01:06.111Z,1004.13
2017-06-25T00:02:07.424Z,1004.15
2017-06-25T00:03:08.651Z,1004.13
2017-06-25T00:04:09.935Z,1004.12
2017-06-25T00:05:11.235Z,1004.11
2017-06-25T00:06:12.514Z,1004.11
2017-06-25T00:07:13.742Z,1004.14
2017-06-25T00:08:15.006Z,1004.1
2017-06-25T00:09:16.268Z,1004.14
2017-06-25T00:10:17.606Z,1004.08
2017-06-25T00:11:18.896Z,1004.06
2017-06-25T00:12:20.269Z,1004.06
2017-06-25T00:13:21.600Z,1004.02
2017-06-25T00:14:22.847Z,1004.05
2017-06-25T00:15:24.139Z,1004.05
2017-06-25T00:16:25.642Z,1004.01
2017-06-25T00:17:26.912Z,1004.04
2017-06-25T00:18:28.184Z,1004
2017-06-25T00:19:29.419Z,1004.02
2017-06-25T00:20:30.677Z,1004.02
2017-06-25T00:21:32.020Z,1004.03
2017-06-25T00:22:33.346Z,1003.98
2017-06-25T00:23:34.606Z,1004
2017-06-25T00:24:35.895Z,1004
2017-06-25T00:25:37.120Z,1003.97
2017-06-25T00:26:38.414Z,1003.98
2017-06-25T00:27:39.696Z,1003.96
2017-06-25T00:28:41.026Z,1003.93
2017-06-25T00:29:42.328Z,1003.93
2017-06-25T00:30:43.586Z,1003.88
2017-06-25T00:31:44.896Z,1003.89
2017-06-25T00:32:46.171Z,1003.89
2017-06-25T00:33:47.437Z,1003.82
2017-06-25T00:34:48.879Z,1003.84
2017-06-25T00:35:50.148Z,1003.77
2017-06-25T00:36:51.399Z,1003.8
2017-06-25T00:37:52.712Z,1003.78
2017-06-25T00:38:54.013Z,1003.8
2017-06-25T00:39:55.292Z,1003.8
2017-06-25T00:40:56.554Z,1003.73
2017-06-25T00:41:57.835Z,1003.76
2017-06-25T00:42:59.079Z,1003.8
2017-06-25T00:44:00.352Z,1003.82
2017-06-25T00:45:01.656Z,1003.82
2017-06-25T00:46:02.968Z,1003.8
2017-06-25T00:47:04.211Z,1003.79
2017-06-25T00:48:05.468Z,1003.77
2017-06-25T00:49:06.743Z,1003.73
2017-06-25T00:50:07.991Z,1003.7
2017-06-25T00:51:09.354Z,1003.62
2017-06-25T00:52:10.618Z,1003.65
2017-06-25T00:53:11.859Z,1003.63
2017-06-25T00:54:13.122Z,1003.66
2017-06-25T00:55:14.391Z,1003.62
2017-06-25T00:56:15.656Z,1003.59
2017-06-25T00:57:16.909Z,1003.61
2017-06-25T00:58:18.140Z,1003.64
2017-06-25T00:59:19.401Z,1003.56
2017-06-25T01:00:20.641Z,1003.6
2017-06-25T01:01:21.899Z,1003.56
2017-06-25T01:02:23.156Z,1003.6
2017-06-25T01:03:24.417Z,1003.57
2017-06-25T01:04:25.678Z,1003.53
2017-06-25T01:05:26.997Z,1003.57
2017-06-25T01:06:28.262Z,1003.6
2017-06-25T01:07:29.514Z,1003.53
2017-06-25T01:08:30.776Z,1003.53
2017-06-25T01:09:32.050Z,1003.54
2017-06-25T01:10:33.359Z,1003.56
2017-06-25T01:11:34.728Z,1003.51
2017-06-25T01:12:36.007Z,1003.5
2017-06-25T01:13:37.258Z,1003.51
2017-06-25T01:14:38.515Z,1003.47
2017-06-25T01:15:39.794Z,1003.52
2017-06-25T01:16:41.100Z,1003.53
2017-06-25T01:17:42.344Z,1003.51
2017-06-25T01:18:43.591Z,1003.48
2017-06-25T01:19:44.845Z,1003.46
2017-06-25T01:20:46.297Z,1003.46
2017-06-25T01:21:47.587Z,1003.47
2017-06-25T01:22:48.890Z,1003.45
2017-06-25T01:23:50.116Z,1003.44
2017-06-25T01:24:51.371Z,1003.44
2017-06-25T01:25:52.656Z,1003.41
2017-06-25T01:26:53.881Z,1003.4
2017-06-25T01:27:55.168Z,1003.35
2017-06-25T01:28:56.485Z,1003.41
2017-06-25T01:29:57.764Z,1003.36
2017-06-25T01:30:59.030Z,1003.35
2017-06-25T01:32:00.270Z,1003.37
2017-06-25T01:33:01.617Z,1003.38
2017-06-25T01:34:02.906Z,1003.35
2017-06-25T01:35:04.155Z,1003.37
2017-06-25T01:36:05.436Z,1003.39
2017-06-25T01:37:06.711Z,1003.36
2017-06-25T01:38:07.988Z,1003.37
2017-06-25T01:39:09.299Z,1003.35
2017-06-25T01:40:10.558Z,1003.3
2017-06-25T01:41:11.816Z,1003.3
2017-06-25T01:42:13.123Z,1003.32
2017-06-25T01:43:14.373Z,1003.34
2017-06-25T01:44:15.648Z,1003.31
2017-06-25T01:45:16.940Z,1003.28
2017-06-25T01:46:18.306Z,1003.24
2017-06-25T01:47:19.471Z,1003.26
2017-06-25T01:48:20.743Z,1003.23
2017-06-25T01:49:21.992Z,1003.22
2017-06-25T01:50:23.298Z,1003.22
2017-06-25T01:51:24.682Z,1003.22
2017-06-25T01:52:25.951Z,1003.14
2017-06-25T01:53:27.214Z,1003.17
2017-06-25T01:54:28.535Z,1003.19
2017-06-25T01:55:29.920Z,1003.16
2017-06-25T01:56:31.238Z,1003.17
2017-06-25T01:57:32.503Z,1003.19
2017-06-25T01:58:33.818Z,1003.18
2017-06-25T01:59:35.064Z,1003.13
2017-06-25T02:00:36.337Z,1003.14
2017-06-25T02:01:37.740Z,1003.13
2017-06-25T02:02:39.063Z,1003.12
2017-06-25T02:03:40.342Z,1003.16
2017-06-25T02:04:41.625Z,1003.1
2017-06-25T02:05:42.870Z,1003.14
2017-06-25T02:06:44.236Z,1003.09
2017-06-25T02:07:45.528Z,1003.09
2017-06-25T02:08:46.867Z,1003.08
2017-06-25T02:09:48.086Z,1003.06
2017-06-25T02:10:49.358Z,1003.03
2017-06-25T02:11:50.616Z,1003
2017-06-25T02:12:51.855Z,1003
2017-06-25T02:13:53.202Z,1002.99
2017-06-25T02:14:54.525Z,1003
2017-06-25T02:15:55.814Z,1002.97
2017-06-25T02:16:57.126Z,1002.95
2017-06-25T02:17:58.349Z,1002.98
2017-06-25T02:18:59.622Z,1002.9
2017-06-25T02:20:00.927Z,1002.94
2017-06-25T02:21:02.180Z,1002.92
2017-06-25T02:22:03.618Z,1002.9
2017-06-25T02:23:05.263Z,1002.85
2017-06-25T02:24:06.770Z,1002.91
2017-06-25T02:25:09.113Z,1002.9
2017-06-25T02:26:10.613Z,1002.86
2017-06-25T02:27:12.050Z,1002.83
2017-06-25T02:28:13.552Z,1002.85
2017-06-25T02:29:15.371Z,1002.85
2017-06-25T02:30:16.860Z,1002.86
2017-06-25T02:31:18.140Z,1002.85
2017-06-25T02:32:19.376Z,1002.95
2017-06-25T02:33:20.639Z,1002.92
2017-06-25T02:34:21.897Z,1002.92
2017-06-25T02:35:23.273Z,1002.89
2017-06-25T02:36:24.551Z,1002.87
2017-06-25T02:37:25.883Z,1002.87
2017-06-25T02:38:27.265Z,1002.88
2017-06-25T02:39:28.517Z,1002.87
2017-06-25T02:40:29.837Z,1002.87
2017-06-25T02:41:31.150Z,1002.9
2017-06-25T02:42:32.380Z,1002.87
2017-06-25T02:43:33.689Z,1002.87
2017-06-25T02:44:35.050Z,1002.9
2017-06-25T02:45:36.325Z,1002.87
2017-06-25T02:46:37.604Z,1002.92
2017-06-25T02:47:38.872Z,1002.9
2017-06-25T02:48:40.111Z,1002.9
2017-06-25T02:49:41.404Z,1002.91
2017-06-25T02:50:42.779Z,1002.91
2017-06-25T02:51:44.028Z,1002.9
2017-06-25T02:52:45.287Z,1002.9
2017-06-25T02:53:46.546Z,1002.88
2017-06-25T02:54:47.856Z,1002.89
2017-06-25T02:55:49.165Z,1002.95
2017-06-25T02:56:50.405Z,1002.89
2017-06-25T02:57:51.701Z,1002.88
2017-06-25T02:58:53.063Z,1002.81
2017-06-25T02:59:54.364Z,1002.81
2017-06-25T03:00:55.611Z,1002.84
2017-06-25T03:01:56.884Z,1002.89
2017-06-25T03:02:58.129Z,1002.85
2017-06-25T03:03:59.395Z,1002.83
2017-06-25T03:05:00.658Z,1002.79
2017-06-25T03:06:01.916Z,1002.79
2017-06-25T03:07:03.232Z,1002.82
2017-06-25T03:08:04.484Z,1002.81
2017-06-25T03:09:05.795Z,1002.77
2017-06-25T03:10:07.074Z,1002.78
2017-06-25T03:11:08.369Z,1002.78
2017-06-25T03:12:09.619Z,1002.74
2017-06-25T03:13:10.882Z,1002.71
2017-06-25T03:14:12.138Z,1002.71
2017-06-25T03:15:13.410Z,1002.71
2017-06-25T03:16:14.660Z,1002.68
2017-06-25T03:17:15.936Z,1002.68
2017-06-25T03:18:17.177Z,1002.67
2017-06-25T03:19:18.417Z,1002.74
2017-06-25T03:20:19.660Z,1002.72
2017-06-25T03:21:20.988Z,1002.65
2017-06-25T03:22:22.224Z,1002.64
2017-06-25T03:23:23.562Z,1002.65
2017-06-25T03:24:24.849Z,1002.65
2017-06-25T03:25:26.113Z,1002.62
2017-06-25T03:26:27.443Z,1002.61
2017-06-25T03:27:28.726Z,1002.57
2017-06-25T03:28:29.990Z,1002.56
2017-06-25T03:29:31.260Z,1002.61
2017-06-25T03:30:32.539Z,1002.62
2017-06-25T03:31:33.894Z,1002.61
2017-06-25T03:32:35.183Z,1002.62
2017-06-25T03:33:36.493Z,1002.62
2017-06-25T03:34:37.771Z,1002.61
2017-06-25T03:35:39.046Z,1002.6
2017-06-25T03:36:40.282Z,1002.64
2017-06-25T03:37:41.566Z,1002.61
2017-06-25T03:38:42.877Z,1002.61
2017-06-25T03:39:44.113Z,1002.58
2017-06-25T03:40:45.377Z,1002.66
2017-06-25T03:41:46.622Z,1002.59
2017-06-25T03:42:48.101Z,1002.62
2017-06-25T03:43:49.412Z,1002.6
2017-06-25T03:44:50.684Z,1002.66
2017-06-25T03:45:51.949Z,1002.64
2017-06-25T03:46:53.295Z,1002.58
2017-06-25T03:47:54.530Z,1002.6
2017-06-25T03:48:55.838Z,1002.53
2017-06-25T03:49:57.117Z,1002.57
2017-06-25T03:50:58.395Z,1002.56
2017-06-25T03:51:59.676Z,1002.52
2017-06-25T03:53:00.939Z,1002.56
2017-06-25T03:54:02.160Z,1002.55
2017-06-25T03:55:03.421Z,1002.52
2017-06-25T03:56:04.781Z,1002.54
2017-06-25T03:57:05.993Z,1002.56
2017-06-25T03:58:07.293Z,1002.53
2017-06-25T03:59:08.569Z,1002.56
2017-06-25T04:00:09.814Z,1002.58
2017-06-25T04:01:11.091Z,1002.59
2017-06-25T04:02:12.395Z,1002.56
2017-06-25T04:03:13.676Z,1002.57
2017-06-25T04:04:14.994Z,1002.54
2017-06-25T04:05:16.254Z,1002.51
2017-06-25T04:06:17.512Z,1002.53
2017-06-25T04:07:18.816Z,1002.52
2017-06-25T04:08:20.046Z,1002.56
2017-06-25T04:09:21.390Z,1002.53
2017-06-25T04:10:22.647Z,1002.52
2017-06-25T04:11:23.894Z,1002.52
2017-06-25T04:12:25.263Z,1002.54
2017-06-25T04:13:26.510Z,1002.53
2017-06-25T04:14:27.778Z,1002.51
2017-06-25T04:15:29.050Z,1002.5
2017-06-25T04:16:30.297Z,1002.45
2017-06-25T04:17:31.534Z,1002.46
2017-06-25T04:18:32.806Z,1002.48
2017-06-25T04:19:34.140Z,1002.5
2017-06-25T04:20:35.529Z,1002.52
2017-06-25T04:21:36.785Z,1002.51
2017-06-25T04:22:38.023Z,1002.55
2017-06-25T04:23:39.299Z,1002.57
2017-06-25T04:24:40.540Z,1002.51
2017-06-25T04:25:41.816Z,1002.52
2017-06-25T04:26:43.126Z,1002.52
2017-06-25T04:27:44.354Z,1002.51
2017-06-25T04:28:45.650Z,1002.5
2017-06-25T04:29:46.900Z,1002.48
2017-06-25T04:30:48.270Z,1002.44
2017-06-25T04:31:49.530Z,1002.49
2017-06-25T04:32:50.841Z,1002.44
2017-06-25T04:33:52.114Z,1002.4
2017-06-25T04:34:53.335Z,1002.42
2017-06-25T04:35:54.583Z,1002.46
2017-06-25T04:36:55.917Z,1002.45
2017-06-25T04:37:57.246Z,1002.46
2017-06-25T04:38:58.553Z,1002.47
2017-06-25T04:39:59.775Z,1002.48
2017-06-25T04:41:01.012Z,1002.45
2017-06-25T04:42:02.275Z,1002.47
2017-06-25T04:43:03.622Z,1002.45
2017-06-25T04:44:04.864Z,1002.47
2017-06-25T04:45:06.159Z,1002.46
2017-06-25T04:46:07.433Z,1002.46
2017-06-25T04:47:08.681Z,1002.4
2017-06-25T04:48:09.947Z,1002.42
2017-06-25T04:49:11.314Z,1002.38
2017-06-25T04:50:12.593Z,1002.43
2017-06-25T04:51:13.829Z,1002.39
2017-06-25T04:52:15.209Z,1002.4
2017-06-25T04:53:16.454Z,1002.4
2017-06-25T04:54:17.705Z,1002.43
2017-06-25T04:55:18.978Z,1002.41
2017-06-25T04:56:20.229Z,1002.42
2017-06-25T04:57:21.500Z,1002.38
2017-06-25T04:58:22.760Z,1002.39
2017-06-25T04:59:23.992Z,1002.32
2017-06-25T05:00:25.284Z,1002.35
2017-06-25T05:01:26.520Z,1002.32
2017-06-25T05:02:27.961Z,1002.3
2017-06-25T05:03:29.300Z,1002.29
2017-06-25T05:04:30.545Z,1002.3
2017-06-25T05:05:31.873Z,1002.26
2017-06-25T05:06:33.168Z,1002.26
2017-06-25T05:07:34.502Z,1002.26
2017-06-25T05:08:35.795Z,1002.33
2017-06-25T05:09:37.138Z,1002.3
2017-06-25T05:10:38.369Z,1002.32
2017-06-25T05:11:39.650Z,1002.34
2017-06-25T05:12:40.910Z,1002.33
2017-06-25T05:13:42.188Z,1002.3
2017-06-25T05:14:43.570Z,1002.28
2017-06-25T05:15:44.897Z,1002.27
2017-06-25T05:16:46.105Z,1002.23
2017-06-25T05:17:47.359Z,1002.26
2017-06-25T05:18:48.620Z,1002.26
2017-06-25T05:19:49.884Z,1002.28
2017-06-25T05:20:51.150Z,1002.26
2017-06-25T05:21:52.456Z,1002.28
2017-06-25T05:22:53.669Z,1002.3
2017-06-25T05:23:54.937Z,1002.29
2017-06-25T05:24:56.235Z,1002.33
2017-06-25T05:25:57.530Z,1002.28
2017-06-25T05:26:58.801Z,1002.24
2017-06-25T05:28:00.051Z,1002.26
2017-06-25T05:29:01.332Z,1002.27
2017-06-25T05:30:02.620Z,1002.28
2017-06-25T05:31:03.942Z,1002.2
2017-06-25T05:32:05.207Z,1002.25
2017-06-25T05:33:06.520Z,1002.22
2017-06-25T05:34:07.765Z,1002.21
2017-06-25T05:35:09.028Z,1002.24
2017-06-25T05:36:10.311Z,1002.23
2017-06-25T05:37:11.600Z,1002.29
2017-06-25T05:38:12.903Z,1002.29
2017-06-25T05:39:14.164Z,1002.27
2017-06-25T05:40:15.474Z,1002.29
2017-06-25T05:41:16.695Z,1002.31
2017-06-25T05:42:17.953Z,1002.26
2017-06-25T05:43:19.290Z,1002.32
2017-06-25T05:44:20.537Z,1002.29
2017-06-25T05:45:21.820Z,1002.3
2017-06-25T05:46:23.077Z,1002.25
2017-06-25T05:47:24.403Z,1002.25
2017-06-25T05:48:25.655Z,1002.24
2017-06-25T05:49:26.984Z,1002.28
2017-06-25T05:50:28.233Z,1002.26
2017-06-25T05:51:29.503Z,1002.21
2017-06-25T05:52:30.783Z,1002.23
2017-06-25T05:53:32.077Z,1002.24
2017-06-25T05:54:33.417Z,1002.22
2017-06-25T05:55:34.709Z,1002.28
2017-06-25T05:56:35.937Z,1002.3
2017-06-25T05:57:37.228Z,1002.26
2017-06-25T05:58:38.495Z,1002.25
2017-06-25T05:59:39.755Z,1002.27
2017-06-25T06:00:41.126Z,1002.28
2017-06-25T06:01:42.346Z,1002.3
2017-06-25T06:02:43.608Z,1002.33
2017-06-25T06:03:44.872Z,1002.27
2017-06-25T06:04:46.147Z,1002.26
2017-06-25T06:05:47.389Z,1002.29
2017-06-25T06:06:48.648Z,1002.26
2017-06-25T06:07:49.935Z,1002.32
2017-06-25T06:08:51.284Z,1002.28
2017-06-25T06:09:52.594Z,1002.31
2017-06-25T06:10:53.927Z,1002.24
2017-06-25T06:11:55.165Z,1002.3
2017-06-25T06:12:56.454Z,1002.34
2017-06-25T06:13:57.711Z,1002.28
2017-06-25T06:14:59.014Z,1002.25
2017-06-25T06:16:00.267Z,1002.3
2017-06-25T06:17:01.536Z,1002.33
2017-06-25T06:18:02.803Z,1002.3
2017-06-25T06:19:04.058Z,1002.28
2017-06-25T06:20:05.348Z,1002.31
2017-06-25T06:21:06.635Z,1002.26
2017-06-25T06:22:07.903Z,1002.28
2017-06-25T06:23:09.145Z,1002.28
2017-06-25T06:24:10.403Z,1002.27
2017-06-25T06:25:11.716Z,1002.25
2017-06-25T06:26:13.030Z,1002.2
2017-06-25T06:27:14.306Z,1002.24
2017-06-25T06:28:15.545Z,1002.23
2017-06-25T06:29:16.824Z,1002.2
2017-06-25T06:30:18.125Z,1002.27
2017-06-25T06:31:19.481Z,1002.21
2017-06-25T06:32:20.723Z,1002.23
2017-06-25T06:33:22.009Z,1002.22
2017-06-25T06:34:23.332Z,1002.23
2017-06-25T06:35:24.591Z,1002.26
2017-06-25T06:36:25.839Z,1002.26
2017-06-25T06:37:27.336Z,1002.29
2017-06-25T06:38:28.626Z,1002.27
2017-06-25T06:39:29.897Z,1002.3
2017-06-25T06:40:31.194Z,1002.26
2017-06-25T06:41:32.443Z,1002.36
2017-06-25T06:42:33.777Z,1002.39
2017-06-25T06:43:35.119Z,1002.34
2017-06-25T06:44:36.389Z,1002.29
2017-06-25T06:45:37.673Z,1002.24
2017-06-25T06:46:38.913Z,1002.2
2017-06-25T06:47:40.184Z,1002.25
2017-06-25T06:48:41.456Z,1002.24
2017-06-25T06:49:42.793Z,1002.23
2017-06-25T06:50:43.964Z,1002.21
2017-06-25T06:51:45.247Z,1002.17
2017-06-25T06:52:46.520Z,1002.2
2017-06-25T06:53:47.795Z,1002.18
2017-06-25T06:54:49.104Z,1002.19
2017-06-25T06:55:50.416Z,1002.23
2017-06-25T06:56:51.710Z,1002.22
2017-06-25T06:57:53.067Z,1002.25
2017-06-25T06:58:54.320Z,1002.18
2017-06-25T06:59:55.754Z,1002.2
2017-06-25T07:00:57.007Z,1002.16
2017-06-25T07:01:58.259Z,1002.16
2017-06-25T07:02:59.600Z,1002.2
2017-06-25T07:04:00.877Z,1002.16
2017-06-25T07:05:02.205Z,1002.18
2017-06-25T07:06:03.561Z,1002.17
2017-06-25T07:07:04.844Z,1002.16
2017-06-25T07:08:06.119Z,1002.14
2017-06-25T07:09:07.400Z,1002.15
2017-06-25T07:10:08.633Z,1002.16
2017-06-25T07:11:09.951Z,1002.13
2017-06-25T07:12:11.230Z,1002.16
2017-06-25T07:13:12.510Z,1002.21
2017-06-25T07:14:13.783Z,1002.19
2017-06-25T07:15:15.070Z,1002.21
2017-06-25T07:16:16.331Z,1002.24
2017-06-25T07:17:17.646Z,1002.23
2017-06-25T07:18:18.911Z,1002.17
2017-06-25T07:19:20.237Z,1002.12
2017-06-25T07:20:21.473Z,1002.16
2017-06-25T07:21:22.758Z,1002.1
2017-06-25T07:22:24.090Z,1002.1
2017-06-25T07:23:25.386Z,1002.15
2017-06-25T07:24:26.652Z,1002.13
2017-06-25T07:25:27.883Z,1002.14
2017-06-25T07:26:29.168Z,1002.13
2017-06-25T07:27:30.487Z,1002.17
2017-06-25T07:28:31.802Z,1002.15
2017-06-25T07:29:33.067Z,1002.22
2017-06-25T07:30:34.370Z,1002.2
2017-06-25T07:31:35.657Z,1002.17
2017-06-25T07:32:37.031Z,1002.08
2017-06-25T07:33:38.315Z,1002.13
2017-06-25T07:34:39.662Z,1002.12
2017-06-25T07:35:41.011Z,1002.06
2017-06-25T07:36:42.205Z,1002.13
2017-06-25T07:37:43.467Z,1002.1
2017-06-25T07:38:44.726Z,1002.13
2017-06-25T07:39:45.989Z,1002.1
2017-06-25T07:40:47.358Z,1002.06
2017-06-25T07:41:48.641Z,1002.14
2017-06-25T07:42:49.922Z,1002.1
2017-06-25T07:43:51.277Z,1002.18
2017-06-25T07:44:52.574Z,1002.15
2017-06-25T07:45:53.898Z,1002.2
2017-06-25T07:46:55.187Z,1002.12
2017-06-25T07:47:56.577Z,1002.12
2017-06-25T07:48:57.860Z,1002.12
2017-06-25T07:49:59.133Z,1002.06
2017-06-25T07:51:00.460Z,1002.09
2017-06-25T07:52:01.731Z,1002.09
2017-06-25T07:53:03.207Z,1002.17
2017-06-25T07:54:04.468Z,1002.12
2017-06-25T07:55:05.749Z,1002.18
2017-06-25T07:56:07.037Z,1002.22
2017-06-25T07:57:08.380Z,1002.32
2017-06-25T07:58:09.781Z,1002.22
2017-06-25T07:59:11.061Z,1002.25
2017-06-25T08:00:12.341Z,1002.23
2017-06-25T08:01:13.599Z,1002.29
2017-06-25T08:02:14.879Z,1002.23
2017-06-25T08:03:16.182Z,1002.26
2017-06-25T08:04:17.456Z,1002.32
2017-06-25T08:05:18.754Z,1002.3
2017-06-25T08:06:20.075Z,1002.31
2017-06-25T08:07:21.463Z,1002.26
2017-06-25T08:08:22.712Z,1002.35
2017-06-25T08:09:24.016Z,1002.16
2017-06-25T08:10:25.410Z,1002.34
2017-06-25T08:11:26.698Z,1002.33
2017-06-25T08:12:28.001Z,1002.34
2017-06-25T08:13:29.327Z,1002.34
2017-06-25T08:14:30.579Z,1002.43
2017-06-25T08:15:31.871Z,1002.49
2017-06-25T08:16:33.155Z,1002.5
2017-06-25T08:17:34.437Z,1002.57
2017-06-25T08:18:35.723Z,1002.58
2017-06-25T08:19:37.013Z,1002.56
2017-06-25T08:20:38.276Z,1002.61
2017-06-25T08:21:39.557Z,1002.6
2017-06-25T08:22:40.804Z,1002.71
2017-06-25T08:23:42.102Z,1002.67
2017-06-25T08:24:43.415Z,1002.69
2017-06-25T08:25:44.650Z,1002.72
2017-06-25T08:26:45.934Z,1002.73
2017-06-25T08:27:47.219Z,1002.75
2017-06-25T08:28:48.505Z,1002.78
2017-06-25T08:29:49.818Z,1002.73
2017-06-25T08:30:51.051Z,1002.8
2017-06-25T08:31:52.303Z,1002.81
2017-06-25T08:32:53.573Z,1002.79
2017-06-25T08:33:54.871Z,1002.81
2017-06-25T08:34:56.128Z,1002.81
2017-06-25T08:35:57.373Z,1002.9
2017-06-25T08:36:58.696Z,1002.91
2017-06-25T08:37:59.953Z,1002.94
2017-06-25T08:39:01.321Z,1002.91
2017-06-25T08:40:02.625Z,1002.99
2017-06-25T08:41:03.880Z,1002.93
2017-06-25T08:42:05.164Z,1002.96
2017-06-25T08:43:06.419Z,1002.92
2017-06-25T08:44:07.721Z,1002.95
2017-06-25T08:45:09.047Z,1002.96
2017-06-25T08:46:10.311Z,1002.92
2017-06-25T08:47:11.574Z,1002.94
2017-06-25T08:48:12.846Z,1002.91
2017-06-25T08:49:14.082Z,1002.93
2017-06-25T08:50:15.358Z,1002.97
2017-06-25T08:51:16.637Z,1002.97
2017-06-25T08:52:17.884Z,1002.98
2017-06-25T08:53:19.207Z,1002.97
2017-06-25T08:54:20.454Z,1003
2017-06-25T08:55:21.792Z,1002.94
2017-06-25T08:56:23.042Z,1002.92
2017-06-25T08:57:24.353Z,1002.9
2017-06-25T08:58:25.632Z,1002.9
2017-06-25T08:59:26.908Z,1002.92
2017-06-25T09:00:28.171Z,1003.05
2017-06-25T09:01:29.436Z,1003.1
2017-06-25T09:02:30.696Z,1003.11
2017-06-25T09:03:31.947Z,1004.21
2017-06-25T09:04:33.213Z,1004.42
2017-06-25T09:05:34.561Z,1003.76
2017-06-25T09:06:35.800Z,1003.55
2017-06-25T09:07:37.156Z,1003.66
2017-06-25T09:08:38.370Z,1003.86
2017-06-25T09:09:39.736Z,1005.52
2017-06-25T09:10:40.977Z,1007.18
2017-06-25T09:11:42.297Z,1007.36
2017-06-25T09:12:43.576Z,1004.4
2017-06-25T09:13:44.858Z,1003.39
2017-06-25T09:14:46.132Z,1003.25
2017-06-25T09:15:47.464Z,1003.05
2017-06-25T09:16:48.731Z,1002.98
2017-06-25T09:17:49.983Z,1002.9
2017-06-25T09:18:51.326Z,1002.92
2017-06-25T09:19:52.533Z,1002.94
2017-06-25T09:20:53.864Z,1002.98
2017-06-25T09:21:55.153Z,1002.99
2017-06-25T09:22:56.470Z,1003
2017-06-25T09:23:57.768Z,1002.96
2017-06-25T09:24:58.989Z,1003.08
2017-06-25T09:26:00.274Z,1003.1
2017-06-25T09:27:01.611Z,1003.08
2017-06-25T09:28:02.866Z,1003.07
2017-06-25T09:29:04.179Z,1003.08
2017-06-25T09:30:05.554Z,1003.06
2017-06-25T09:31:06.731Z,1003
2017-06-25T09:32:08.043Z,1003.06
2017-06-25T09:33:09.321Z,1003.09
2017-06-25T09:34:10.588Z,1003.11
2017-06-25T09:35:11.917Z,1003.14
2017-06-25T09:36:13.281Z,1003.18
2017-06-25T09:37:14.577Z,1003.15
2017-06-25T09:38:15.816Z,1003.23
2017-06-25T09:39:17.112Z,1003.26
2017-06-25T09:40:18.350Z,1003.26
2017-06-25T09:41:19.661Z,1003.26
2017-06-25T09:42:20.874Z,1003.25
2017-06-25T09:43:22.161Z,1003.2
2017-06-25T09:44:23.469Z,1003.2
2017-06-25T09:45:24.721Z,1003.21
2017-06-25T09:46:25.990Z,1003.2
2017-06-25T09:47:27.275Z,1003.2
2017-06-25T09:48:28.536Z,1003.22
2017-06-25T09:49:29.959Z,1003.22
2017-06-25T09:50:31.243Z,1003.24
2017-06-25T09:51:32.491Z,1003.27
2017-06-25T09:52:33.760Z,1003.2
2017-06-25T09:53:35.048Z,1003.24
2017-06-25T09:54:36.404Z,1003.28
2017-06-25T09:55:37.633Z,1003.2
2017-06-25T09:56:38.908Z,1003.17
2017-06-25T09:57:40.181Z,1003.18
2017-06-25T09:58:41.471Z,1003.17
2017-06-25T09:59:42.712Z,1003.15
2017-06-25T10:00:44.024Z,1003.2
2017-06-25T10:01:45.293Z,1003.18
2017-06-25T10:02:46.597Z,1003.12
2017-06-25T10:03:47.880Z,1003.16
2017-06-25T10:04:49.130Z,1003.13
2017-06-25T10:05:50.433Z,1003.12
2017-06-25T10:06:51.807Z,1003.19
2017-06-25T10:07:53.058Z,1003.28
2017-06-25T10:08:54.306Z,1003.33
2017-06-25T10:09:55.576Z,1003.37
2017-06-25T10:10:56.836Z,1003.39
2017-06-25T10:11:58.180Z,1003.41
2017-06-25T10:12:59.478Z,1003.42
2017-06-25T10:14:00.742Z,1003.47
2017-06-25T10:15:02.028Z,1003.46
2017-06-25T10:16:03.270Z,1003.46
2017-06-25T10:17:04.529Z,1003.45
2017-06-25T10:18:05.886Z,1003.58
2017-06-25T10:19:07.191Z,1003.62
2017-06-25T10:20:08.434Z,1003.62
2017-06-25T10:21:09.685Z,1003.64
2017-06-25T10:22:10.924Z,1003.66
2017-06-25T10:23:12.273Z,1003.72
2017-06-25T10:24:13.604Z,1003.75
2017-06-25T10:25:14.843Z,1003.76
2017-06-25T10:26:16.110Z,1003.81
2017-06-25T10:27:17.431Z,1003.9
2017-06-25T10:28:18.650Z,1003.82
2017-06-25T10:29:19.930Z,1003.93
2017-06-25T10:30:21.268Z,1003.92
2017-06-25T10:31:22.539Z,1003.94
2017-06-25T10:32:23.833Z,1003.93
2017-06-25T10:33:25.107Z,1004
2017-06-25T10:34:26.392Z,1003.94
2017-06-25T10:35:27.726Z,1003.94
2017-06-25T10:36:28.986Z,1003.98
2017-06-25T10:37:30.233Z,1003.94
2017-06-25T10:38:31.497Z,1003.93
2017-06-25T10:39:32.748Z,1003.93
2017-06-25T10:40:34.038Z,1003.93
2017-06-25T10:41:35.321Z,1003.94
2017-06-25T10:42:36.681Z,1003.97
2017-06-25T10:43:38.008Z,1003.89
2017-06-25T10:44:39.279Z,1003.96
2017-06-25T10:45:40.556Z,1003.92
2017-06-25T10:46:41.864Z,1003.93
2017-06-25T10:47:43.140Z,1003.93
2017-06-25T10:48:44.396Z,1003.89
2017-06-25T10:49:45.658Z,1003.85
2017-06-25T10:50:46.969Z,1003.82
2017-06-25T10:51:48.242Z,1003.8
2017-06-25T10:52:49.504Z,1003.77
2017-06-25T10:53:50.738Z,1003.79
2017-06-25T10:54:51.997Z,1003.73
2017-06-25T10:55:53.294Z,1003.77
2017-06-25T10:56:54.599Z,1003.82
2017-06-25T10:57:55.888Z,1003.78
2017-06-25T10:58:57.243Z,1003.8
2017-06-25T10:59:58.500Z,1003.78
2017-06-25T11:00:59.799Z,1003.8
2017-06-25T11:02:01.053Z,1003.72
2017-06-25T11:03:02.317Z,1003.73
2017-06-25T11:04:03.714Z,1003.74
2017-06-25T11:05:05.044Z,1003.73
2017-06-25T11:06:06.318Z,1003.78
2017-06-25T11:07:07.544Z,1003.8
2017-06-25T11:08:08.813Z,1003.79
2017-06-25T11:09:10.113Z,1003.79
2017-06-25T11:10:11.426Z,1003.79
2017-06-25T11:11:12.671Z,1003.88
2017-06-25T11:12:13.943Z,1003.85
2017-06-25T11:13:15.207Z,1003.87
2017-06-25T11:14:16.504Z,1003.91
2017-06-25T11:15:17.804Z,1003.84
2017-06-25T11:16:19.080Z,1003.89
2017-06-25T11:17:20.341Z,1003.97
2017-06-25T11:18:21.654Z,1003.9
2017-06-25T11:19:22.975Z,1003.91
2017-06-25T11:20:24.254Z,1003.93
2017-06-25T11:21:25.506Z,1003.89
2017-06-25T11:22:26.771Z,1003.9
2017-06-25T11:23:28.073Z,1003.95
2017-06-25T11:24:29.440Z,1003.97
2017-06-25T11:25:30.718Z,1004.01
2017-06-25T11:26:31.982Z,1004.04
2017-06-25T11:27:33.218Z,1004.02
2017-06-25T11:28:34.470Z,1004.09
2017-06-25T11:29:35.871Z,1004.05
2017-06-25T11:30:37.121Z,1004.07
2017-06-25T11:31:38.391Z,1004.04
2017-06-25T11:32:39.733Z,1003.96
2017-06-25T11:33:41.031Z,1003.97
2017-06-25T11:34:42.274Z,1003.99
2017-06-25T11:35:43.546Z,1004.02
2017-06-25T11:36:44.806Z,1004.17
2017-06-25T11:37:46.076Z,1004.13
2017-06-25T11:38:47.336Z,1004.11
2017-06-25T11:39:48.603Z,1004.13
2017-06-25T11:40:49.948Z,1004.15
2017-06-25T11:41:51.223Z,1004.1
2017-06-25T11:42:52.543Z,1004.16
2017-06-25T11:43:53.797Z,1004.1
2017-06-25T11:44:55.078Z,1004.13
2017-06-25T11:45:56.415Z,1004.12
2017-06-25T11:46:57.829Z,1004.07
2017-06-25T11:47:59.108Z,1004.05
2017-06-25T11:49:00.379Z,1004.04
2017-06-25T11:50:01.636Z,1004.11
2017-06-25T11:51:02.877Z,1004.1
2017-06-25T11:52:04.151Z,1004.05
2017-06-25T11:53:05.417Z,1004.06
2017-06-25T11:54:06.684Z,1004.04
2017-06-25T11:55:07.968Z,1004.01
2017-06-25T11:56:09.255Z,1004
2017-06-25T11:57:10.615Z,1004
2017-06-25T11:58:11.924Z,1004
2017-06-25T11:59:13.185Z,1003.99
2017-06-25T12:00:14.464Z,1003.98
2017-06-25T12:01:15.753Z,1004.01
2017-06-25T12:02:17.014Z,1004.13
2017-06-25T12:03:18.322Z,1004.16
2017-06-25T12:04:19.662Z,1004.15
2017-06-25T12:05:20.904Z,1004.21
2017-06-25T12:06:22.146Z,1004.16
2017-06-25T12:07:23.423Z,1004.18
2017-06-25T12:08:24.752Z,1004.13
2017-06-25T12:09:26.025Z,1004.14
2017-06-25T12:10:27.652Z,1004.13
2017-06-25T12:11:28.956Z,1004.12
2017-06-25T12:12:30.218Z,1004.22
2017-06-25T12:13:31.506Z,1004.24
2017-06-25T12:14:32.730Z,1004.25
2017-06-25T12:15:33.987Z,1004.22
2017-06-25T12:16:35.338Z,1004.12
2017-06-25T12:17:36.640Z,1004.24
2017-06-25T12:18:37.928Z,1004.27
2017-06-25T12:19:39.213Z,1004.21
2017-06-25T12:20:40.469Z,1004.19
2017-06-25T12:21:41.765Z,1004.27
2017-06-25T12:22:43.046Z,1004.27
2017-06-25T12:23:44.516Z,1004.35
2017-06-25T12:24:45.966Z,1004.34